Terminal Aerodrome Forecast
Issued by NWS

Home | Current Version | Previous Version | Text Only | Print | Product List | Glossary On
Versions: 1 2 3 4 5 6 7 8 9 10 11 12 13 14 15 16 17 18 19
000
FTUS42 KKEY 061500 AAA
TAFMTH
TAF AMD
KMTH 061500Z 0615/0712 07006KT P6SM FEW017
     FM070300 03007KT P6SM FEW009 SCT020
     FM070900 04008KT P6SM SCT009 BKN020=

USA.gov is the U.S. government's official web portal to all federal, state and local government web resources and services.